createdAt,value
2023-04-23T00:01:45.408Z,47.92
2023-04-23T00:04:12.436Z,48.16
2023-04-23T00:06:40.007Z,47.83
2023-04-23T00:09:08.005Z,47.89
2023-04-23T00:11:34.691Z,47.63
2023-04-23T00:14:01.381Z,47.71
2023-04-23T00:16:28.441Z,47.58
2023-04-23T00:18:54.825Z,47.59
2023-04-23T00:21:21.354Z,47.72
2023-04-23T00:23:47.748Z,47.61
2023-04-23T00:26:14.156Z,47.60
2023-04-23T00:28:40.648Z,47.89
2023-04-23T00:31:07.874Z,47.91
2023-04-23T00:33:34.378Z,47.59
2023-04-23T00:36:00.946Z,47.73
2023-04-23T00:38:27.545Z,47.45
2023-04-23T00:40:54.043Z,47.79
2023-04-23T00:43:20.650Z,47.53
2023-04-23T00:45:47.961Z,47.64
2023-04-23T00:48:14.934Z,47.73
2023-04-23T00:50:42.127Z,47.98
2023-04-23T00:53:09.019Z,47.76
2023-04-23T00:55:35.517Z,48.04
2023-04-23T00:58:02.217Z,48.06
2023-04-23T01:00:29.675Z,47.89
2023-04-23T01:02:58.300Z,48.05
2023-04-23T01:05:25.646Z,48.13
2023-04-23T01:07:52.213Z,48.15
2023-04-23T01:10:19.022Z,48.26
2023-04-23T01:12:45.990Z,48.03
2023-04-23T01:15:12.456Z,48.04
2023-04-23T01:17:39.087Z,48.39
2023-04-23T01:20:06.613Z,48.01
2023-04-23T01:22:36.515Z,48.12
2023-04-23T01:25:04.252Z,47.59
2023-04-23T01:27:31.114Z,47.56
2023-04-23T01:29:58.312Z,47.56
2023-04-23T01:32:25.074Z,47.22
2023-04-23T01:34:53.951Z,47.61
2023-04-23T01:37:21.256Z,47.44
2023-04-23T01:39:47.730Z,47.29
2023-04-23T01:42:14.697Z,47.36
2023-04-23T01:44:41.750Z,47.40
2023-04-23T01:47:08.496Z,47.36
2023-04-23T01:49:34.990Z,47.60
2023-04-23T01:52:01.669Z,47.53
2023-04-23T01:54:28.092Z,47.69
2023-04-23T01:56:56.030Z,47.53
2023-04-23T01:59:22.789Z,47.74
2023-04-23T02:01:50.150Z,47.84
2023-04-23T02:04:17.828Z,47.71
2023-04-23T02:06:47.681Z,47.96
2023-04-23T02:09:14.604Z,47.27
2023-04-23T02:11:41.205Z,47.48
2023-04-23T02:14:08.972Z,47.50
2023-04-23T02:16:36.506Z,47.52
2023-04-23T02:19:03.409Z,47.63
2023-04-23T02:21:30.119Z,47.24
2023-04-23T02:23:57.372Z,47.64
2023-04-23T02:26:25.132Z,47.66
2023-04-23T02:28:51.725Z,47.33
2023-04-23T02:31:18.762Z,47.44
2023-04-23T02:33:46.879Z,47.52
2023-04-23T02:36:13.283Z,47.53
2023-04-23T02:38:42.390Z,47.87
2023-04-23T02:41:08.961Z,47.57
2023-04-23T02:43:35.591Z,47.36
2023-04-23T02:46:08.614Z,47.53
2023-04-23T02:48:40.798Z,47.60
2023-04-23T02:51:09.826Z,47.57
2023-04-23T02:53:36.465Z,47.94
2023-04-23T02:56:03.022Z,47.36
2023-04-23T02:58:29.346Z,47.70
2023-04-23T03:00:55.927Z,47.53
2023-04-23T03:03:22.556Z,47.46
2023-04-23T03:05:49.046Z,47.52
2023-04-23T03:08:15.774Z,47.41
2023-04-23T03:10:42.231Z,47.72
2023-04-23T03:13:08.741Z,47.80
2023-04-23T03:15:35.421Z,47.97
2023-04-23T03:18:02.078Z,47.52
2023-04-23T03:20:28.506Z,48.00
2023-04-23T03:22:55.087Z,47.82
2023-04-23T03:25:23.728Z,47.47
2023-04-23T03:27:50.133Z,47.90
2023-04-23T03:30:16.839Z,47.56
2023-04-23T03:32:43.273Z,48.10
2023-04-23T03:35:10.017Z,47.82
2023-04-23T03:37:36.798Z,47.76
2023-04-23T03:40:07.447Z,47.75
2023-04-23T03:42:34.305Z,48.28
2023-04-23T03:45:01.550Z,48.33
2023-04-23T03:47:28.019Z,48.50
2023-04-23T03:49:54.862Z,47.86
2023-04-23T03:52:21.486Z,47.93
2023-04-23T03:54:47.860Z,48.08
2023-04-23T03:57:14.458Z,48.21
2023-04-23T03:59:40.810Z,47.95
2023-04-23T04:02:07.455Z,48.16
2023-04-23T04:04:34.566Z,48.10
2023-04-23T04:07:01.360Z,47.96
2023-04-23T04:09:28.728Z,48.11
2023-04-23T04:11:55.737Z,48.27
2023-04-23T04:14:23.324Z,48.37
2023-04-23T04:16:49.789Z,48.46
2023-04-23T04:19:16.302Z,48.50
2023-04-23T04:21:42.701Z,48.62
2023-04-23T04:24:11.549Z,48.76
2023-04-23T04:26:38.020Z,48.84
2023-04-23T04:29:04.616Z,48.73
2023-04-23T04:31:31.365Z,48.36
2023-04-23T04:33:58.343Z,48.68
2023-04-23T04:36:29.080Z,48.52
2023-04-23T04:38:58.670Z,48.50
2023-04-23T04:41:25.942Z,48.76
2023-04-23T04:43:52.718Z,48.37
2023-04-23T04:46:20.636Z,48.47
2023-04-23T04:48:48.104Z,48.99
2023-04-23T04:51:14.567Z,48.53
2023-04-23T04:53:41.215Z,48.79
2023-04-23T04:56:08.111Z,48.42
2023-04-23T04:58:34.777Z,48.55
2023-04-23T05:01:01.502Z,48.68
2023-04-23T05:03:28.267Z,48.38
2023-04-23T05:05:58.995Z,48.42
2023-04-23T05:08:25.555Z,48.38
2023-04-23T05:10:54.168Z,48.48
2023-04-23T05:13:20.537Z,48.74
2023-04-23T05:15:47.004Z,48.32
2023-04-23T05:18:13.601Z,48.19
2023-04-23T05:20:41.310Z,48.10
2023-04-23T05:23:07.692Z,48.38
2023-04-23T05:25:35.813Z,48.28
2023-04-23T05:28:02.363Z,48.18
2023-04-23T05:30:29.033Z,47.99
2023-04-23T05:32:55.696Z,48.34
2023-04-23T05:35:22.154Z,48.00
2023-04-23T05:37:48.878Z,48.40
2023-04-23T05:40:15.428Z,48.35
2023-04-23T05:42:41.892Z,48.37
2023-04-23T05:45:09.432Z,48.43
2023-04-23T05:47:36.578Z,48.29
2023-04-23T05:50:03.048Z,48.53
2023-04-23T05:52:33.295Z,48.36
2023-04-23T05:54:59.612Z,48.59
2023-04-23T05:57:26.460Z,48.25
2023-04-23T05:59:52.867Z,48.08
2023-04-23T06:02:20.891Z,48.05
2023-04-23T06:04:49.148Z,48.60
2023-04-23T06:07:16.335Z,48.35
2023-04-23T06:09:42.742Z,48.38
2023-04-23T06:12:11.644Z,48.39
2023-04-23T06:14:38.092Z,48.66
2023-04-23T06:17:04.724Z,48.25
2023-04-23T06:19:31.427Z,48.47
2023-04-23T06:21:58.018Z,48.22
2023-04-23T06:24:24.397Z,48.32
2023-04-23T06:26:50.978Z,48.13
2023-04-23T06:29:17.607Z,48.32
2023-04-23T06:31:44.053Z,48.46
2023-04-23T06:34:10.612Z,47.87
2023-04-23T06:36:36.936Z,47.79
2023-04-23T06:39:03.557Z,47.95
2023-04-23T06:41:30.052Z,47.99
2023-04-23T06:43:58.625Z,47.96
2023-04-23T06:46:26.254Z,47.96
2023-04-23T06:48:52.636Z,47.67
2023-04-23T06:51:19.095Z,47.81
2023-04-23T06:53:47.151Z,47.72
2023-04-23T06:56:13.567Z,47.90
2023-04-23T06:58:41.292Z,47.58
2023-04-23T07:01:08.014Z,47.67
2023-04-23T07:03:34.554Z,47.62
2023-04-23T07:06:01.342Z,47.77
2023-04-23T07:08:27.694Z,47.56
2023-04-23T07:10:54.340Z,47.65
2023-04-23T07:13:20.726Z,47.52
2023-04-23T07:15:47.199Z,47.30
2023-04-23T07:18:13.695Z,47.09
2023-04-23T07:20:40.245Z,46.96
2023-04-23T07:23:09.176Z,46.83
2023-04-23T07:25:35.758Z,46.82
2023-04-23T07:28:02.396Z,46.51
2023-04-23T07:30:31.066Z,46.28
2023-04-23T07:32:57.736Z,46.54
2023-04-23T07:35:26.880Z,45.81
2023-04-23T07:37:56.016Z,45.76
2023-04-23T07:40:23.123Z,45.53
2023-04-23T07:42:53.694Z,45.28
2023-04-23T07:45:20.155Z,45.19
2023-04-23T07:47:46.848Z,45.08
2023-04-23T07:50:14.016Z,44.69
2023-04-23T07:52:40.419Z,44.74
2023-04-23T07:55:07.838Z,44.83
2023-04-23T07:57:34.175Z,44.79
2023-04-23T08:00:00.813Z,44.78
2023-04-23T08:02:27.685Z,45.01
2023-04-23T08:04:54.381Z,44.79
2023-04-23T08:07:24.021Z,44.84
2023-04-23T08:09:50.753Z,44.71
2023-04-23T08:12:19.384Z,44.87
2023-04-23T08:14:47.312Z,45.27
2023-04-23T08:17:13.719Z,45.75
2023-04-23T08:19:40.240Z,45.41
2023-04-23T08:22:09.911Z,44.84
2023-04-23T08:24:36.543Z,44.52
2023-04-23T08:27:03.012Z,44.65
2023-04-23T08:29:29.428Z,44.32
2023-04-23T08:31:56.106Z,43.77
2023-04-23T08:34:22.788Z,43.59
2023-04-23T08:36:51.985Z,42.83
2023-04-23T08:39:18.673Z,42.45
2023-04-23T08:41:52.393Z,42.38
2023-04-23T08:44:23.349Z,41.76
2023-04-23T08:46:52.829Z,42.10
2023-04-23T08:49:20.688Z,42.19
2023-04-23T08:51:53.235Z,41.41
2023-04-23T08:54:27.172Z,41.03
2023-04-23T08:57:00.821Z,41.10
2023-04-23T08:59:31.898Z,41.43
2023-04-23T09:02:00.898Z,41.92
2023-04-23T09:04:28.339Z,41.36
2023-04-23T09:06:56.262Z,41.23
2023-04-23T09:09:23.817Z,41.65
2023-04-23T09:11:51.732Z,41.36
2023-04-23T09:14:19.837Z,41.14
2023-04-23T09:16:46.449Z,40.88
2023-04-23T09:19:13.634Z,40.86
2023-04-23T09:21:43.018Z,40.46
2023-04-23T09:24:13.110Z,40.46
2023-04-23T09:26:47.016Z,39.44
2023-04-23T09:29:17.353Z,39.78
2023-04-23T09:31:49.612Z,39.72
2023-04-23T09:34:18.247Z,39.96
2023-04-23T09:37:19.200Z,39.43
2023-04-23T09:39:57.204Z,39.61
2023-04-23T09:42:24.304Z,39.95
2023-04-23T09:44:58.722Z,39.03
2023-04-23T09:47:25.975Z,39.51
2023-04-23T09:49:53.127Z,38.88
2023-04-23T09:52:19.685Z,39.93
2023-04-23T09:54:46.682Z,39.51
2023-04-23T09:57:13.821Z,39.04
2023-04-23T10:02:13.383Z,39.56
2023-04-23T10:04:40.448Z,39.64
2023-04-23T10:07:18.924Z,39.04
2023-04-23T10:09:48.155Z,39.00
2023-04-23T10:14:46.709Z,38.07
2023-04-23T10:17:13.765Z,38.19
2023-04-23T10:19:44.291Z,37.84
2023-04-23T10:24:48.606Z,37.64
2023-04-23T10:27:30.711Z,37.50
2023-04-23T10:30:06.434Z,37.32
2023-04-23T10:32:37.361Z,36.71
2023-04-23T10:35:04.712Z,37.85
2023-04-23T10:37:31.568Z,37.32
2023-04-23T10:40:04.601Z,36.95
2023-04-23T10:42:31.768Z,37.45
2023-04-23T10:45:04.785Z,37.94
2023-04-23T10:47:37.669Z,38.38
2023-04-23T10:50:24.125Z,37.59
2023-04-23T10:52:53.355Z,37.79
2023-04-23T10:55:28.652Z,37.20
2023-04-23T10:58:06.307Z,37.72
2023-04-23T11:00:46.447Z,37.56
2023-04-23T11:03:44.477Z,37.22
2023-04-23T11:06:19.383Z,37.31
2023-04-23T11:08:53.703Z,37.38
2023-04-23T11:11:38.390Z,37.25
2023-04-23T11:14:14.156Z,37.19
2023-04-23T11:16:41.218Z,37.40
2023-04-23T11:19:17.303Z,36.19
2023-04-23T11:21:59.941Z,36.11
2023-04-23T11:24:41.514Z,36.18
2023-04-23T11:27:13.916Z,35.73
2023-04-23T11:29:42.345Z,36.20
2023-04-23T11:32:13.290Z,36.94
2023-04-23T11:34:41.796Z,36.14
2023-04-23T11:37:10.873Z,35.71
2023-04-23T11:39:37.546Z,35.83
2023-04-23T11:42:06.339Z,35.84
2023-04-23T11:44:32.705Z,35.53
2023-04-23T11:47:02.091Z,35.01
2023-04-23T11:49:28.490Z,34.72
2023-04-23T11:51:55.006Z,34.59
2023-04-23T11:54:27.654Z,34.19
2023-04-23T11:56:55.207Z,34.84
2023-04-23T11:59:21.944Z,34.95
2023-04-23T12:01:51.790Z,34.68
2023-04-23T12:04:26.210Z,33.87
2023-04-23T12:06:54.924Z,34.37
2023-04-23T12:09:24.612Z,35.40
2023-04-23T12:11:51.177Z,34.64
2023-04-23T12:14:20.987Z,34.40
2023-04-23T12:16:52.086Z,34.27
2023-04-23T12:19:20.998Z,33.68
2023-04-23T12:21:54.664Z,33.13
2023-04-23T12:24:52.563Z,33.87
2023-04-23T12:27:22.088Z,33.31
2023-04-23T12:29:49.390Z,33.34
2023-04-23T12:32:16.010Z,32.92
2023-04-23T12:34:53.340Z,32.83
2023-04-23T12:37:24.213Z,32.92
2023-04-23T12:39:50.811Z,33.55
2023-04-23T12:42:17.296Z,33.43
2023-04-23T12:44:45.087Z,33.11
2023-04-23T12:47:11.797Z,33.13
2023-04-23T12:49:40.685Z,32.87
2023-04-23T12:52:07.926Z,32.83
2023-04-23T12:54:40.752Z,32.98
2023-04-23T12:57:09.913Z,32.46
2023-04-23T12:59:36.404Z,32.52
2023-04-23T13:02:04.659Z,32.71
2023-04-23T13:04:33.170Z,32.52
2023-04-23T13:06:59.865Z,32.68
2023-04-23T13:09:28.375Z,32.73
2023-04-23T13:11:55.165Z,33.85
2023-04-23T13:14:21.698Z,33.32
2023-04-23T13:16:48.970Z,32.55
2023-04-23T13:19:17.507Z,33.07
2023-04-23T13:21:44.155Z,33.83
2023-04-23T13:24:10.753Z,32.97
2023-04-23T13:26:37.372Z,32.93
2023-04-23T13:29:03.857Z,32.70
2023-04-23T13:31:32.422Z,32.39
2023-04-23T13:33:58.858Z,33.32
2023-04-23T13:36:25.547Z,32.25
2023-04-23T13:38:52.871Z,31.79
2023-04-23T13:41:19.714Z,31.36
2023-04-23T13:43:46.304Z,31.48
2023-04-23T13:46:14.434Z,31.18
2023-04-23T13:48:41.676Z,31.13
2023-04-23T13:51:17.974Z,31.02
2023-04-23T13:53:54.682Z,30.89
2023-04-23T13:56:21.058Z,30.80
2023-04-23T13:58:49.020Z,30.92
2023-04-23T14:01:16.175Z,31.03
2023-04-23T14:03:42.783Z,30.88
2023-04-23T14:06:11.513Z,30.68
2023-04-23T14:08:38.301Z,30.55
2023-04-23T14:11:04.929Z,30.56
2023-04-23T14:13:32.964Z,30.34
2023-04-23T14:16:02.041Z,30.58
2023-04-23T14:18:30.087Z,30.73
2023-04-23T14:20:58.096Z,30.70
2023-04-23T14:23:25.305Z,30.15
2023-04-23T14:26:04.307Z,30.29
2023-04-23T14:28:39.337Z,30.10
2023-04-23T14:31:06.280Z,30.36
2023-04-23T14:33:32.971Z,29.87
2023-04-23T14:36:00.217Z,29.75
2023-04-23T14:38:26.759Z,29.26
2023-04-23T14:40:55.712Z,29.53
2023-04-23T14:43:22.301Z,29.83
2023-04-23T14:45:48.817Z,29.21
2023-04-23T14:48:15.429Z,29.47
2023-04-23T14:50:42.153Z,29.42
2023-04-23T14:53:10.570Z,29.14
2023-04-23T14:55:37.037Z,30.68
2023-04-23T14:58:03.433Z,28.95
2023-04-23T15:00:30.371Z,28.64
2023-04-23T15:02:57.211Z,28.68
2023-04-23T15:05:24.049Z,28.61
2023-04-23T15:07:51.831Z,28.58
2023-04-23T15:10:19.381Z,28.56
2023-04-23T15:12:53.480Z,28.19
2023-04-23T15:15:37.054Z,27.96
2023-04-23T15:18:07.793Z,28.32
2023-04-23T15:20:34.297Z,28.40
2023-04-23T15:23:00.962Z,28.83
2023-04-23T15:25:27.821Z,28.66
2023-04-23T15:28:00.069Z,28.41
2023-04-23T15:30:27.589Z,28.60
2023-04-23T15:32:57.573Z,28.43
2023-04-23T15:35:25.346Z,28.46
2023-04-23T15:37:54.466Z,28.69
2023-04-23T15:40:21.253Z,28.81
2023-04-23T15:42:50.106Z,28.90
2023-04-23T15:45:17.218Z,28.95
2023-04-23T15:47:46.257Z,28.45
2023-04-23T15:50:13.142Z,28.53
2023-04-23T15:52:41.393Z,28.52
2023-04-23T15:55:08.220Z,28.73
2023-04-23T15:57:34.835Z,28.41
2023-04-23T16:00:02.390Z,28.67
2023-04-23T16:02:28.976Z,28.64
2023-04-23T16:04:55.865Z,28.45
2023-04-23T16:07:22.418Z,28.49
2023-04-23T16:09:49.408Z,29.03
2023-04-23T16:12:15.776Z,29.07
2023-04-23T16:14:43.007Z,29.35
2023-04-23T16:17:09.814Z,29.07
2023-04-23T16:19:36.352Z,29.53
2023-04-23T16:22:02.769Z,29.93
2023-04-23T16:24:29.733Z,30.00
2023-04-23T16:26:56.148Z,30.50
2023-04-23T16:29:23.180Z,30.14
2023-04-23T16:31:50.416Z,30.32
2023-04-23T16:34:17.194Z,30.48
2023-04-23T16:36:44.895Z,30.39
2023-04-23T16:39:12.399Z,30.51
2023-04-23T16:41:39.759Z,30.26
2023-04-23T16:44:06.243Z,30.11
2023-04-23T16:46:33.024Z,30.73
2023-04-23T16:48:59.860Z,30.87
2023-04-23T16:51:27.056Z,30.72
2023-04-23T16:53:54.082Z,30.82
2023-04-23T16:56:20.952Z,30.75
2023-04-23T16:58:47.652Z,30.78
2023-04-23T17:01:14.842Z,30.33
2023-04-23T17:03:41.504Z,30.92
2023-04-23T17:06:10.013Z,30.67
2023-04-23T17:08:37.243Z,30.91
2023-04-23T17:11:11.578Z,30.74
2023-04-23T17:13:38.978Z,30.69
2023-04-23T17:16:05.518Z,30.71
2023-04-23T17:18:32.338Z,30.86
2023-04-23T17:20:58.744Z,31.40
2023-04-23T17:23:25.174Z,31.48
2023-04-23T17:25:51.936Z,31.35
2023-04-23T17:28:20.305Z,31.43
2023-04-23T17:30:50.826Z,31.28
2023-04-23T17:33:17.875Z,31.11
2023-04-23T17:35:44.326Z,31.38
2023-04-23T17:38:11.798Z,31.57
2023-04-23T17:40:39.423Z,32.02
2023-04-23T17:43:06.241Z,31.83
2023-04-23T17:45:32.721Z,31.83
2023-04-23T17:47:59.182Z,32.20
2023-04-23T17:50:25.746Z,32.42
2023-04-23T17:52:52.418Z,32.55
2023-04-23T17:55:21.737Z,33.05
2023-04-23T17:57:49.145Z,33.56
2023-04-23T18:00:17.407Z,34.01
2023-04-23T18:02:44.758Z,34.61
2023-04-23T18:05:14.721Z,35.45
2023-04-23T18:07:42.666Z,35.53
2023-04-23T18:10:13.996Z,36.32
2023-04-23T18:12:41.697Z,36.49
2023-04-23T18:15:11.274Z,36.81
2023-04-23T18:17:39.428Z,37.51
2023-04-23T18:20:06.658Z,37.74
2023-04-23T18:22:33.493Z,38.17
2023-04-23T18:24:59.846Z,38.68
2023-04-23T18:27:34.644Z,39.02
2023-04-23T18:30:02.444Z,39.13
2023-04-23T18:32:35.162Z,39.36
2023-04-23T18:35:02.812Z,39.77
2023-04-23T18:37:44.006Z,41.47
2023-04-23T18:40:11.394Z,39.87
2023-04-23T18:42:39.246Z,40.44
2023-04-23T18:45:06.454Z,40.17
2023-04-23T18:47:38.739Z,41.57
2023-04-23T18:50:36.364Z,41.93
2023-04-23T18:53:03.165Z,40.44
2023-04-23T18:55:29.498Z,40.65
2023-04-23T18:57:56.170Z,40.81
2023-04-23T19:00:23.016Z,41.21
2023-04-23T19:02:52.532Z,41.07
2023-04-23T19:05:19.871Z,41.21
2023-04-23T19:07:48.224Z,41.37
2023-04-23T19:10:16.146Z,41.38
2023-04-23T19:12:43.597Z,41.31
2023-04-23T19:15:11.017Z,41.51
2023-04-23T19:17:38.698Z,41.70
2023-04-23T19:20:09.265Z,41.83
2023-04-23T19:22:35.911Z,41.70
2023-04-23T19:25:02.854Z,41.77
2023-04-23T19:27:29.213Z,41.84
2023-04-23T19:29:57.696Z,41.93
2023-04-23T19:32:24.378Z,42.23
2023-04-23T19:34:52.140Z,41.45
2023-04-23T19:37:18.582Z,41.58
2023-04-23T19:39:45.461Z,41.91
2023-04-23T19:42:12.143Z,42.07
2023-04-23T19:44:38.718Z,42.25
2023-04-23T19:47:07.400Z,42.32
2023-04-23T19:49:33.955Z,42.26
2023-04-23T19:52:03.851Z,42.44
2023-04-23T19:54:30.572Z,42.34
2023-04-23T19:56:58.584Z,42.49
2023-04-23T19:59:25.182Z,42.52
2023-04-23T20:01:53.857Z,42.47
2023-04-23T20:04:21.130Z,42.79
2023-04-23T20:06:48.689Z,42.16
2023-04-23T20:09:18.800Z,42.37
2023-04-23T20:14:13.224Z,42.10
2023-04-23T20:16:42.758Z,42.37
2023-04-23T20:19:15.313Z,42.52
2023-04-23T20:21:42.936Z,42.44
2023-04-23T20:24:10.571Z,42.57
2023-04-23T20:26:41.403Z,42.63
2023-04-23T20:29:08.133Z,42.45
2023-04-23T20:31:37.318Z,42.31
2023-04-23T20:34:03.800Z,42.46
2023-04-23T20:36:33.125Z,42.60
2023-04-23T20:39:06.055Z,42.41
2023-04-23T20:41:36.438Z,42.58
2023-04-23T20:44:07.327Z,42.42
2023-04-23T20:46:33.812Z,42.41
2023-04-23T20:49:05.096Z,42.86
2023-04-23T20:51:35.240Z,43.09
2023-04-23T20:54:08.325Z,42.77
2023-04-23T20:56:35.944Z,42.56
2023-04-23T20:59:08.132Z,42.84
2023-04-23T21:01:37.964Z,42.98
2023-04-23T21:04:07.322Z,42.72
2023-04-23T21:06:34.297Z,42.67
2023-04-23T21:09:00.765Z,42.57
2023-04-23T21:11:28.825Z,42.42
2023-04-23T21:13:58.086Z,42.53
2023-04-23T21:16:27.324Z,42.36
2023-04-23T21:18:54.007Z,42.42
2023-04-23T21:21:27.314Z,42.09
2023-04-23T21:23:53.660Z,42.28
2023-04-23T21:26:21.076Z,41.85
2023-04-23T21:28:51.506Z,41.96
2023-04-23T21:31:30.128Z,42.38
2023-04-23T21:33:56.969Z,41.99
2023-04-23T21:36:23.945Z,41.64
2023-04-23T21:38:55.882Z,41.37
2023-04-23T21:41:22.297Z,41.53
2023-04-23T21:43:49.088Z,41.21
2023-04-23T21:46:16.139Z,41.49
2023-04-23T21:48:42.704Z,41.42
2023-04-23T21:51:09.351Z,41.39
2023-04-23T21:53:38.789Z,41.31
2023-04-23T21:56:06.720Z,41.49
2023-04-23T21:58:34.650Z,41.43
2023-04-23T22:01:01.469Z,41.21
2023-04-23T22:03:36.497Z,41.07
2023-04-23T22:06:06.821Z,40.87
2023-04-23T22:08:34.665Z,41.27
2023-04-23T22:11:01.107Z,40.65
2023-04-23T22:13:28.953Z,40.57
2023-04-23T22:15:58.573Z,40.70
2023-04-23T22:18:28.728Z,40.45
2023-04-23T22:20:57.250Z,40.47
2023-04-23T22:23:24.846Z,40.43
2023-04-23T22:25:54.114Z,40.00
2023-04-23T22:28:20.530Z,39.81
2023-04-23T22:30:48.813Z,39.38
2023-04-23T22:33:16.442Z,38.95
2023-04-23T22:35:44.956Z,39.01
2023-04-23T22:38:11.334Z,39.41
2023-04-23T22:40:40.785Z,38.93
2023-04-23T22:46:02.696Z,38.62
2023-04-23T22:48:32.696Z,38.60
2023-04-23T22:50:59.231Z,38.69
2023-04-23T22:53:25.842Z,38.69
2023-04-23T22:55:52.707Z,38.82
2023-04-23T22:58:20.714Z,38.72
2023-04-23T23:00:47.734Z,38.63
2023-04-23T23:03:16.121Z,38.39
2023-04-23T23:05:42.866Z,38.61
2023-04-23T23:08:09.506Z,38.62
2023-04-23T23:10:35.965Z,38.74
2023-04-23T23:13:04.855Z,38.83
2023-04-23T23:15:33.337Z,38.84
2023-04-23T23:18:00.120Z,38.85
2023-04-23T23:20:28.398Z,38.80
2023-04-23T23:22:57.106Z,38.86
2023-04-23T23:25:24.718Z,38.69
2023-04-23T23:27:51.542Z,38.90
2023-04-23T23:30:17.953Z,38.89
2023-04-23T23:32:47.341Z,38.93
2023-04-23T23:35:18.606Z,38.90
2023-04-23T23:37:47.948Z,38.79
2023-04-23T23:40:14.397Z,38.72
2023-04-23T23:42:43.304Z,39.06
2023-04-23T23:45:12.714Z,38.68
2023-04-23T23:47:43.899Z,39.00
2023-04-23T23:50:11.306Z,38.81
2023-04-23T23:52:37.760Z,38.97
2023-04-23T23:55:04.766Z,39.03
2023-04-23T23:57:31.438Z,38.88
2023-04-23T23:59:58.041Z,38.88
